Terminal Aerodrome Forecast
Issued by NWS Dodge City, KS

Home | Current Version | Previous Version | Graphics & Text | Print | Product List | Glossary Off
Versions: 1 2 3 4 5 6 7 8 9 10 11 12 13 14 15 16 17 18 19 20 21 22 23 24 25 26 27 28 29 30 31 32 33 34 35 36 37 38 39 40 41 42 43 44 45 46

240
FTUS43 KDDC 232339 AAA
TAFDDC
TAF AMD
KDDC 232339Z 2400/2424 35027G35KT P6SM SKC
     FM240200 34019KT P6SM SCT110
     FM240600 34017KT P6SM SCT025
      TEMPO 2406/2410 BKN025
     FM241000 33017G27KT P6SM BKN020
     FM241200 33017G25KT P6SM FEW025=

USA.gov is the U.S. government's official web portal to all federal, state and local government web resources and services.